createdAt,value
2018-12-03T00:02:27.626Z,95965.05
2018-12-03T00:04:57.109Z,95962.55
2018-12-03T00:07:27.524Z,95954.94
2018-12-03T00:09:58.643Z,95967.30
2018-12-03T00:12:30.912Z,95990.13
2018-12-03T00:15:00.100Z,96000.16
2018-12-03T00:17:28.707Z,95994.34
2018-12-03T00:19:57.184Z,95986.63
2018-12-03T00:22:25.739Z,95986.27
2018-12-03T00:24:54.633Z,95991.09
2018-12-03T00:27:23.340Z,95987.02
2018-12-03T00:29:53.129Z,95976.68
2018-12-03T00:32:21.662Z,95982.78
2018-12-03T00:34:50.346Z,96000.08
2018-12-03T00:38:42.635Z,95985.80
2018-12-03T00:41:52.338Z,95990.27
2018-12-03T00:47:37.952Z,95998.33
2018-12-03T00:50:27.523Z,95991.39
2018-12-03T00:53:37.246Z,95992.75
2018-12-03T00:56:47.486Z,95986.92
2018-12-03T00:59:18.303Z,95998.31
2018-12-03T01:02:25.774Z,95995.23
2018-12-03T01:05:35.821Z,95988.14
2018-12-03T01:11:21.117Z,96001.38
2018-12-03T01:14:10.607Z,95996.07
2018-12-03T01:16:52.677Z,96007.70
2018-12-03T01:19:23.584Z,96006.04
2018-12-03T01:28:11.728Z,96009.56
2018-12-03T01:31:21.305Z,96014.91
2018-12-03T01:34:30.998Z,96012.41
2018-12-03T01:43:16.063Z,96022.50
2018-12-03T01:49:12.852Z,96033.78
2018-12-03T01:52:22.496Z,96036.93
2018-12-03T01:58:05.636Z,96040.32
2018-12-03T02:04:02.462Z,96033.14
2018-12-03T02:09:48.509Z,96040.29
2018-12-03T02:18:14.083Z,96019.23
2018-12-03T02:21:23.646Z,96018.33
2018-12-03T02:26:58.969Z,96010.10
2018-12-03T02:38:58.891Z,95999.83
2018-12-03T02:47:46.730Z,95982.48
2018-12-03T02:50:56.296Z,95974.34
2018-12-03T02:54:05.909Z,95963.70
2018-12-03T03:03:23.158Z,95959.76
2018-12-03T03:12:04.862Z,95947.31
2018-12-03T03:18:07.617Z,95948.35
2018-12-03T03:30:27.240Z,95963.81
2018-12-03T03:33:16.940Z,95962.67
2018-12-03T03:36:28.484Z,95962.61
2018-12-03T03:42:01.890Z,95977.11
2018-12-03T03:44:30.608Z,95964.81
2018-12-03T03:46:59.594Z,95953.66
2018-12-03T03:49:28.161Z,95945.22
2018-12-03T03:51:57.345Z,95937.33
2018-12-03T03:54:26.058Z,95943.28
2018-12-03T03:56:54.633Z,95943.28
2018-12-03T03:59:23.238Z,95941.00
2018-12-03T04:01:52.186Z,95949.95
2018-12-03T04:04:20.816Z,95957.25
2018-12-03T04:06:49.359Z,95967.78
2018-12-03T04:09:17.966Z,95968.00
2018-12-03T04:11:47.534Z,95977.17
2018-12-03T04:14:16.402Z,95975.44
2018-12-03T04:16:45.112Z,95986.06
2018-12-03T04:19:13.606Z,95989.30
2018-12-03T04:21:42.493Z,95990.34
2018-12-03T04:24:11.119Z,96002.13
2018-12-03T04:26:39.896Z,96012.97
2018-12-03T04:29:08.660Z,96001.30
2018-12-03T04:32:21.757Z,95997.44
2018-12-03T04:34:50.604Z,95992.86
2018-12-03T04:37:20.814Z,95992.27
2018-12-03T04:39:49.323Z,95989.55
2018-12-03T04:42:18.619Z,95996.54
2018-12-03T04:44:47.514Z,95998.42
2018-12-03T04:47:16.013Z,95998.63
2018-12-03T04:49:45.116Z,95999.16
2018-12-03T04:52:13.795Z,96004.78
2018-12-03T04:54:42.748Z,96006.45
2018-12-03T04:57:11.381Z,96013.42
2018-12-03T04:59:40.303Z,96003.11
2018-12-03T05:02:08.824Z,96009.81
2018-12-03T05:04:37.549Z,96001.38
2018-12-03T05:07:06.331Z,96010.34
2018-12-03T05:09:34.883Z,96018.47
2018-12-03T05:12:03.639Z,96005.13
2018-12-03T05:14:32.090Z,96019.51
2018-12-03T05:18:56.813Z,96007.39
2018-12-03T05:22:05.911Z,96011.28
2018-12-03T05:25:19.134Z,96003.67
2018-12-03T05:30:48.315Z,96012.01
2018-12-03T05:33:57.538Z,96003.81
2018-12-03T05:37:07.289Z,96017.77
2018-12-03T05:42:31.737Z,96012.15
2018-12-03T05:45:20.341Z,96006.87
2018-12-03T05:54:23.638Z,96010.80
2018-12-03T06:03:19.971Z,96023.81
2018-12-03T06:14:18.482Z,96029.83
2018-12-03T06:17:09.011Z,96018.53
2018-12-03T06:22:37.407Z,96027.25
2018-12-03T06:25:22.667Z,96023.11
2018-12-03T06:28:31.842Z,96023.49
2018-12-03T06:31:01.559Z,96023.91
2018-12-03T06:36:49.482Z,96031.16
2018-12-03T06:42:44.680Z,96034.66
2018-12-03T06:45:34.031Z,96036.95
2018-12-03T06:48:44.055Z,96033.51
2018-12-03T06:51:32.977Z,96043.93
2018-12-03T06:54:42.660Z,96052.97
2018-12-03T07:00:58.433Z,96045.45
2018-12-03T07:03:28.679Z,96053.50
2018-12-03T07:05:58.656Z,96047.31
2018-12-03T07:11:23.758Z,96046.58
2018-12-03T07:17:38.292Z,96062.02
2018-12-03T07:20:12.933Z,96059.83
2018-12-03T07:22:55.071Z,96052.63
2018-12-03T07:25:14.485Z,96060.77
2018-12-03T07:28:03.364Z,96055.03
2018-12-03T07:30:33.287Z,96056.38
2018-12-03T07:33:02.754Z,96055.44
2018-12-03T07:36:02.558Z,96047.52
2018-12-03T07:38:43.038Z,96054.41
2018-12-03T07:41:12.910Z,96055.23
2018-12-03T07:43:42.290Z,96057.12
2018-12-03T07:49:46.998Z,96068.99
2018-12-03T07:58:51.868Z,96065.30
2018-12-03T08:01:32.369Z,96067.70
2018-12-03T08:13:17.771Z,96083.13
2018-12-03T08:19:04.470Z,96098.63
2018-12-03T08:22:05.514Z,96104.06
2018-12-03T08:27:00.969Z,96104.68
2018-12-03T08:32:25.433Z,96100.19
2018-12-03T08:38:03.633Z,96082.51
2018-12-03T08:41:12.813Z,96085.31
2018-12-03T08:53:17.666Z,96081.20
2018-12-03T08:56:06.810Z,96088.50
2018-12-03T08:59:28.070Z,96087.98
2018-12-03T09:02:06.778Z,96085.98
2018-12-03T09:05:16.063Z,96089.44
2018-12-03T09:11:19.151Z,96091.72
2018-12-03T09:17:15.157Z,96103.35
2018-12-03T09:22:59.685Z,96094.02
2018-12-03T09:26:09.078Z,96097.56
2018-12-03T09:29:18.323Z,96099.66
2018-12-03T09:37:24.244Z,96112.38
2018-12-03T09:39:54.164Z,96111.91
2018-12-03T09:45:50.060Z,96105.93
2018-12-03T09:51:21.139Z,96097.81
2018-12-03T09:57:08.035Z,96112.47
2018-12-03T10:00:08.100Z,96098.47
2018-12-03T10:02:48.189Z,96097.94
2018-12-03T10:05:28.674Z,96099.39
2018-12-03T10:14:24.171Z,96096.09
2018-12-03T10:16:56.334Z,96092.02
2018-12-03T10:19:33.661Z,96091.50
2018-12-03T10:22:03.615Z,96085.54
2018-12-03T10:24:33.780Z,96084.18
2018-12-03T10:27:08.467Z,96081.77
2018-12-03T10:29:38.964Z,96084.48
2018-12-03T10:32:11.098Z,96082.08
2018-12-03T10:34:40.547Z,96079.59
2018-12-03T10:37:12.451Z,96076.22
2018-12-03T10:39:42.500Z,96066.80
2018-12-03T10:42:14.348Z,96059.58
2018-12-03T10:44:45.023Z,96065.16
2018-12-03T10:47:14.534Z,96067.66
2018-12-03T10:49:44.463Z,96061.70
2018-12-03T10:52:19.270Z,96054.08
2018-12-03T10:54:49.191Z,96054.16
2018-12-03T10:57:19.255Z,96051.23
2018-12-03T10:59:53.360Z,96051.81
2018-12-03T11:02:35.137Z,96050.67
2018-12-03T11:05:11.427Z,96053.70
2018-12-03T11:07:41.293Z,96050.23
2018-12-03T11:10:11.094Z,96060.05
2018-12-03T11:12:41.004Z,96051.81
2018-12-03T11:15:14.197Z,96050.45
2018-12-03T11:17:43.664Z,96041.26
2018-12-03T11:20:13.926Z,96041.04
2018-12-03T11:22:47.540Z,96046.25
2018-12-03T11:25:18.440Z,96048.44
2018-12-03T11:27:51.321Z,96037.66
2018-12-03T11:30:21.848Z,96047.45
2018-12-03T11:32:53.596Z,96038.55
2018-12-03T11:35:26.320Z,96037.50
2018-12-03T11:38:05.016Z,96039.55
2018-12-03T11:40:48.188Z,96031.23
2018-12-03T11:43:18.369Z,96028.83
2018-12-03T11:45:48.326Z,96026.85
2018-12-03T11:48:18.164Z,96026.33
2018-12-03T11:50:48.225Z,96018.27
2018-12-03T11:53:18.429Z,96027.55
2018-12-03T11:55:48.259Z,96020.15
2018-12-03T11:58:17.908Z,96021.20
2018-12-03T12:00:47.550Z,96013.88
2018-12-03T12:03:18.016Z,96014.80
2018-12-03T12:05:47.483Z,96011.08
2018-12-03T12:08:17.654Z,96002.94
2018-12-03T12:10:48.569Z,96004.29
2018-12-03T12:13:18.904Z,95999.08
2018-12-03T12:15:48.652Z,95992.15
2018-12-03T12:18:18.301Z,95988.91
2018-12-03T12:20:48.250Z,95999.16
2018-12-03T12:23:17.823Z,95985.27
2018-12-03T12:25:47.925Z,95991.92
2018-12-03T12:28:18.686Z,95988.30
2018-12-03T12:30:48.811Z,95983.39
2018-12-03T12:33:18.509Z,95987.77
2018-12-03T12:35:48.405Z,95980.98
2018-12-03T12:38:18.521Z,95993.06
2018-12-03T12:40:47.912Z,95994.11
2018-12-03T12:43:18.273Z,95988.91
2018-12-03T12:45:52.218Z,95978.47
2018-12-03T12:48:21.985Z,95978.87
2018-12-03T12:50:51.580Z,95973.66
2018-12-03T12:53:21.167Z,95964.67
2018-12-03T12:55:50.749Z,95963.23
2018-12-03T12:58:20.723Z,95957.36
2018-12-03T13:00:50.163Z,95952.84
2018-12-03T13:03:19.542Z,95953.20
2018-12-03T13:05:54.860Z,95948.55
2018-12-03T13:08:31.531Z,95948.02
2018-12-03T13:11:01.406Z,95939.78
2018-12-03T13:13:31.171Z,95943.94
2018-12-03T13:16:00.943Z,95937.20
2018-12-03T13:18:30.539Z,95932.16
2018-12-03T13:21:00.096Z,95928.84
2018-12-03T13:23:29.510Z,95926.95
2018-12-03T13:25:59.676Z,95929.23
2018-12-03T13:28:29.085Z,95929.81
2018-12-03T13:30:58.655Z,95921.39
2018-12-03T13:33:28.330Z,95923.32
2018-12-03T13:35:58.179Z,95929.14
2018-12-03T13:38:27.799Z,95926.56
2018-12-03T13:40:59.944Z,95932.30
2018-12-03T13:43:29.712Z,95927.48
2018-12-03T13:45:59.920Z,95921.30
2018-12-03T13:48:30.321Z,95928.53
2018-12-03T13:51:00.189Z,95920.98
2018-12-03T13:53:29.692Z,95907.63
2018-12-03T13:55:59.077Z,95900.31
2018-12-03T13:58:28.518Z,95904.00
2018-12-03T14:00:57.904Z,95898.83
2018-12-03T14:03:29.574Z,95906.72
2018-12-03T14:06:13.315Z,95916.00
2018-12-03T14:08:53.670Z,95916.22
2018-12-03T14:11:32.080Z,95911.56
2018-12-03T14:16:33.089Z,95915.17
2018-12-03T14:19:15.250Z,95903.41
2018-12-03T14:21:51.524Z,95896.23
2018-12-03T14:24:21.851Z,95905.00
2018-12-03T14:26:52.583Z,95897.67
2018-12-03T14:29:22.379Z,95899.26
2018-12-03T14:31:51.760Z,95894.35
2018-12-03T14:34:25.633Z,95896.46
2018-12-03T14:36:55.377Z,95892.47
2018-12-03T14:39:24.782Z,95903.78
2018-12-03T14:41:54.494Z,95891.86
2018-12-03T14:44:24.995Z,95893.22
2018-12-03T14:46:55.531Z,95892.08
2018-12-03T14:49:25.373Z,95884.77
2018-12-03T14:51:55.053Z,95891.95
2018-12-03T14:54:24.556Z,95890.81
2018-12-03T14:56:54.741Z,95883.20
2018-12-03T14:59:24.311Z,95889.16
2018-12-03T15:02:07.722Z,95892.70
2018-12-03T15:07:36.717Z,95903.27
2018-12-03T15:10:08.168Z,95907.11
2018-12-03T15:12:38.853Z,95906.20
2018-12-03T15:15:12.086Z,95902.20
2018-12-03T15:17:43.720Z,95901.37
2018-12-03T15:20:13.696Z,95900.85
2018-12-03T15:22:43.481Z,95896.70
2018-12-03T15:25:15.645Z,95902.30
2018-12-03T15:27:45.656Z,95907.42
2018-12-03T15:30:15.507Z,95912.86
2018-12-03T15:32:45.509Z,95915.87
2018-12-03T15:35:15.286Z,95912.41
2018-12-03T15:37:45.127Z,95917.84
2018-12-03T15:40:18.053Z,95915.87
2018-12-03T15:42:48.362Z,95914.08
2018-12-03T15:45:19.058Z,95918.59
2018-12-03T15:47:53.481Z,95905.54
2018-12-03T15:50:23.244Z,95911.19
2018-12-03T15:52:53.250Z,95903.58
2018-12-03T15:55:24.050Z,95913.38
2018-12-03T15:57:55.540Z,95913.30
2018-12-03T16:00:25.197Z,95913.25
2018-12-03T16:02:55.043Z,95920.92
2018-12-03T16:05:26.283Z,95920.56
2018-12-03T16:07:56.143Z,95916.41
2018-12-03T16:10:25.596Z,95918.16
2018-12-03T16:12:55.138Z,95916.94
2018-12-03T16:15:25.373Z,95908.23
2018-12-03T16:17:54.840Z,95925.52
2018-12-03T16:20:24.623Z,95925.08
2018-12-03T16:22:54.662Z,95917.55
2018-12-03T16:25:24.359Z,95925.83
2018-12-03T16:27:55.004Z,95927.02
2018-12-03T16:30:25.531Z,95926.84
2018-12-03T16:32:56.440Z,95919.61
2018-12-03T16:35:26.366Z,95911.37
2018-12-03T16:37:55.813Z,95919.20
2018-12-03T16:40:26.232Z,95921.75
2018-12-03T16:42:55.987Z,95926.44
2018-12-03T16:45:25.579Z,95926.96
2018-12-03T16:47:56.061Z,95904.79
2018-12-03T16:50:25.621Z,95909.17
2018-12-03T16:52:55.357Z,95905.98
2018-12-03T16:55:25.185Z,95914.36
2018-12-03T16:57:54.837Z,95913.47
2018-12-03T17:00:24.900Z,95916.02
2018-12-03T17:02:54.531Z,95916.17
2018-12-03T17:05:24.199Z,95913.45
2018-12-03T17:07:53.768Z,95911.35
2018-12-03T17:10:23.243Z,95925.98
2018-12-03T17:12:53.691Z,95922.44
2018-12-03T17:15:23.238Z,95916.00
2018-12-03T17:20:45.271Z,95920.47
2018-12-03T17:23:29.074Z,95916.17
2018-12-03T17:25:58.895Z,95908.84
2018-12-03T17:28:28.461Z,95917.34
2018-12-03T17:30:58.823Z,95917.52
2018-12-03T17:33:28.264Z,95917.30
2018-12-03T17:35:57.911Z,95915.24
2018-12-03T17:38:27.712Z,95918.88
2018-12-03T17:40:58.074Z,95914.49
2018-12-03T17:43:28.948Z,95919.17
2018-12-03T17:45:58.418Z,95918.17
2018-12-03T17:48:28.148Z,95925.88
2018-12-03T17:50:58.069Z,95920.21
2018-12-03T17:53:28.155Z,95927.88
2018-12-03T17:55:57.784Z,95917.55
2018-12-03T17:58:30.431Z,95920.97
2018-12-03T18:01:00.188Z,95918.63
2018-12-03T18:03:30.201Z,95919.52
2018-12-03T18:06:00.633Z,95926.83
2018-12-03T18:08:31.220Z,95926.08
2018-12-03T18:11:00.860Z,95927.74
2018-12-03T18:13:30.865Z,95926.98
2018-12-03T18:16:00.590Z,95941.19
2018-12-03T18:21:06.389Z,95947.72
2018-12-03T18:23:37.425Z,95944.25
2018-12-03T18:26:09.113Z,95957.31
2018-12-03T18:28:40.722Z,95947.13
2018-12-03T18:31:10.940Z,95958.00
2018-12-03T18:33:41.265Z,95962.61
2018-12-03T18:36:10.930Z,95956.64
2018-12-03T18:38:44.887Z,95954.45
2018-12-03T18:41:15.190Z,95959.28
2018-12-03T18:43:45.198Z,95961.62
2018-12-03T18:46:15.343Z,95964.56
2018-12-03T18:48:45.396Z,95959.20
2018-12-03T18:51:14.811Z,95958.67
2018-12-03T18:53:44.682Z,95960.56
2018-12-03T18:56:14.735Z,95964.64
2018-12-03T18:58:52.376Z,95964.11
2018-12-03T19:01:22.451Z,95960.03
2018-12-03T19:03:53.299Z,95964.34
2018-12-03T19:06:23.940Z,95968.19
2018-12-03T19:08:53.683Z,95963.28
2018-12-03T19:11:23.898Z,95959.42
2018-12-03T19:13:53.452Z,95966.92
2018-12-03T19:16:23.783Z,95971.00
2018-12-03T19:18:53.705Z,95972.66
2018-12-03T19:21:23.907Z,95971.67
2018-12-03T19:23:53.339Z,95976.44
2018-12-03T19:26:26.208Z,95976.97
2018-12-03T19:28:55.671Z,95976.44
2018-12-03T19:31:25.475Z,95980.29
2018-12-03T19:33:55.279Z,95989.80
2018-12-03T19:36:26.747Z,95988.14
2018-12-03T19:38:58.047Z,95989.20
2018-12-03T19:41:27.466Z,95994.10
2018-12-03T19:43:57.784Z,95988.14
2018-12-03T19:46:28.214Z,95995.46
2018-12-03T19:48:58.324Z,95999.54
2018-12-03T19:51:29.450Z,95997.66
2018-12-03T19:53:59.916Z,96013.13
2018-12-03T19:56:29.640Z,96022.25
2018-12-03T19:58:59.040Z,96019.45
2018-12-03T20:01:30.089Z,96019.23
2018-12-03T20:04:04.228Z,96024.22
2018-12-03T20:06:36.305Z,96024.14
2018-12-03T20:09:07.437Z,96031.16
2018-12-03T20:11:37.617Z,96040.97
2018-12-03T20:14:07.542Z,96036.67
2018-12-03T20:16:37.033Z,96044.52
2018-12-03T20:19:06.667Z,96045.35
2018-12-03T20:21:36.817Z,96038.03
2018-12-03T20:24:10.785Z,96050.57
2018-12-03T20:26:49.083Z,96048.38
2018-12-03T20:34:11.509Z,96049.30
2018-12-03T20:36:53.494Z,96050.70
2018-12-03T20:39:32.154Z,96055.39
2018-12-03T20:42:05.132Z,96059.69
2018-12-03T20:44:40.893Z,96061.36
2018-12-03T20:47:35.040Z,96048.69
2018-12-03T20:51:21.279Z,96056.75
2018-12-03T20:53:51.217Z,96070.86
2018-12-03T20:56:21.180Z,96079.11
2018-12-03T20:58:50.769Z,96088.70
2018-12-03T21:01:20.977Z,96088.53
2018-12-03T21:03:50.917Z,96090.67
2018-12-03T21:06:20.729Z,96102.06
2018-12-03T21:08:50.188Z,96106.41
2018-12-03T21:11:22.739Z,96116.55
2018-12-03T21:13:52.194Z,96116.84
2018-12-03T21:16:22.794Z,96118.73
2018-12-03T21:18:52.439Z,96122.28
2018-12-03T21:21:22.295Z,96128.86
2018-12-03T21:23:51.886Z,96122.37
2018-12-03T21:26:21.295Z,96122.50
2018-12-03T21:28:51.047Z,96118.42
2018-12-03T21:31:22.101Z,96127.41
2018-12-03T21:33:51.886Z,96120.40
2018-12-03T21:36:21.284Z,96131.80
2018-12-03T21:38:51.495Z,96134.20
2018-12-03T21:41:21.457Z,96135.52
2018-12-03T21:43:51.203Z,96145.83
2018-12-03T21:46:20.594Z,96148.52
2018-12-03T21:48:50.427Z,96164.17
2018-12-03T21:51:20.090Z,96159.05
2018-12-03T21:53:49.802Z,96165.22
2018-12-03T21:56:19.220Z,96160.01
2018-12-03T21:58:48.620Z,96163.25
2018-12-03T22:01:18.031Z,96162.94
2018-12-03T22:03:47.482Z,96165.66
2018-12-03T22:06:17.139Z,96168.84
2018-12-03T22:08:47.488Z,96165.82
2018-12-03T22:11:17.203Z,96172.70
2018-12-03T22:13:46.755Z,96185.95
2018-12-03T22:16:16.593Z,96194.41
2018-12-03T22:18:49.176Z,96196.61
2018-12-03T22:21:20.409Z,96204.76
2018-12-03T22:23:50.141Z,96219.77
2018-12-03T22:26:19.861Z,96216.83
2018-12-03T22:28:49.720Z,96237.42
2018-12-03T22:31:19.382Z,96248.30
2018-12-03T22:33:49.025Z,96244.16
2018-12-03T22:36:18.837Z,96253.36
2018-12-03T22:38:48.952Z,96260.14
2018-12-03T22:41:18.537Z,96261.41
2018-12-03T22:43:49.659Z,96263.51
2018-12-03T22:46:19.271Z,96276.99
2018-12-03T22:48:48.779Z,96269.92
2018-12-03T22:51:19.344Z,96281.74
2018-12-03T22:53:49.473Z,96278.41
2018-12-03T22:56:19.400Z,96280.81
2018-12-03T22:58:49.005Z,96285.41
2018-12-03T23:01:24.880Z,96300.03
2018-12-03T23:03:54.525Z,96308.70
2018-12-03T23:06:24.388Z,96308.43
2018-12-03T23:08:54.160Z,96312.30
2018-12-03T23:11:23.944Z,96315.38
2018-12-03T23:13:53.499Z,96319.04
2018-12-03T23:16:23.149Z,96319.25
2018-12-03T23:18:53.461Z,96328.97
2018-12-03T23:21:23.092Z,96330.74
2018-12-03T23:23:52.737Z,96338.69
2018-12-03T23:26:22.706Z,96345.16
2018-12-03T23:28:52.226Z,96353.23
2018-12-03T23:31:21.880Z,96351.36
2018-12-03T23:33:51.274Z,96348.53
2018-12-03T23:36:21.012Z,96358.98
2018-12-03T23:38:51.095Z,96360.58
2018-12-03T23:41:20.849Z,96373.21
2018-12-03T23:43:50.797Z,96371.23
2018-12-03T23:46:20.479Z,96377.91
2018-12-03T23:48:50.387Z,96378.36
2018-12-03T23:51:21.303Z,96387.75
2018-12-03T23:53:51.083Z,96388.79
2018-12-03T23:56:21.475Z,96396.94
2018-12-03T23:58:51.118Z,96399.53
